Aminuis Airstrip


Codes: FYAM/
Name: Aminuis Airstrip
City: Aminuis
Country: Namibia
Elevation: 4012 ft.

Photos at Aminuis Airstrip


   Photos courtesy of SpottingLog. You can add your own sightings and photos by signing up for a free trial today.



No photos found.

Weather at Aminuis Airstrip


Time (UTC)DescriptionTempratureWindCloud coverageVisibilityPressureHumidity
13-Jun-2024 03:00Scattered Clouds12°C9 mph, N28%10000m1025hPa37%
13-Jun-2024 06:00Few Clouds12°C9 mph, N21%10000m1026hPa36%
13-Jun-2024 09:00Clear Sky20°C9 mph, NE0%10000m1025hPa20%
13-Jun-2024 12:00Clear Sky24°C11 mph, NE0%10000m1021hPa17%
13-Jun-2024 15:00Clear Sky24°C11 mph, NE0%10000m1019hPa17%
13-Jun-2024 18:00Clear Sky16°C9 mph, NE0%10000m1023hPa27%
13-Jun-2024 21:00Clear Sky14°C11 mph, NE0%10000m1024hPa31%
14-Jun-2024 00:00Clear Sky12°C11 mph, NE0%10000m1024hPa33%
14-Jun-2024 03:00Clear Sky10°C11 mph, NE0%10000m1025hPa37%
14-Jun-2024 06:00Clear Sky10°C9 mph, NE0%10000m1026hPa37%
14-Jun-2024 09:00Clear Sky20°C11 mph, NE0%10000m1025hPa20%
14-Jun-2024 12:00Clear Sky24°C11 mph, NE0%10000m1020hPa13%
14-Jun-2024 15:00Clear Sky23°C9 mph, NE0%10000m1019hPa12%
14-Jun-2024 18:00Clear Sky16°C9 mph, NE0%10000m1022hPa18%
14-Jun-2024 21:00Clear Sky13°C11 mph, NE0%10000m1023hPa20%
15-Jun-2024 00:00Clear Sky11°C11 mph, NE0%10000m1024hPa24%
15-Jun-2024 03:00Clear Sky9°C11 mph, NE0%10000m1023hPa29%
15-Jun-2024 06:00Clear Sky9°C11 mph, NE0%10000m1024hPa31%
15-Jun-2024 09:00Clear Sky20°C16 mph, NE0%10000m1022hPa17%
15-Jun-2024 12:00Clear Sky24°C13 mph, NE0%10000m1018hPa11%
15-Jun-2024 15:00Few Clouds23°C9 mph, NE13%10000m1017hPa11%
15-Jun-2024 18:00Few Clouds16°C11 mph, NE12%10000m1020hPa18%
15-Jun-2024 21:00Clear Sky13°C11 mph, NE7%10000m1022hPa25%
16-Jun-2024 00:00Clear Sky11°C13 mph, NE7%10000m1021hPa32%
16-Jun-2024 03:00Clear Sky10°C13 mph, NE2%10000m1021hPa35%
16-Jun-2024 06:00Clear Sky10°C11 mph, N1%10000m1022hPa36%
16-Jun-2024 09:00Clear Sky21°C18 mph, NE0%10000m1019hPa19%
16-Jun-2024 12:00Clear Sky25°C16 mph, N0%10000m1015hPa12%
16-Jun-2024 15:00Clear Sky24°C13 mph, NE0%10000m1014hPa11%
16-Jun-2024 18:00Clear Sky16°C13 mph, NE2%10000m1018hPa19%
16-Jun-2024 21:00Clear Sky13°C13 mph, NE5%10000m1018hPa24%
17-Jun-2024 00:00Clear Sky12°C13 mph, N2%10000m1018hPa27%
17-Jun-2024 03:00Clear Sky11°C11 mph, N0%10000m1019hPa30%
17-Jun-2024 06:00Clear Sky10°C11 mph, N1%10000m1020hPa30%
17-Jun-2024 09:00Clear Sky22°C20 mph, N2%10000m1017hPa14%
17-Jun-2024 12:00Clear Sky27°C13 mph, NW1%10000m1013hPa9%
17-Jun-2024 15:00Clear Sky26°C9 mph, W0%10000m1012hPa10%
17-Jun-2024 18:00Clear Sky17°C4 mph, SW1%10000m1015hPa18%
17-Jun-2024 21:00Clear Sky14°C7 mph, SW3%10000m1018hPa21%
18-Jun-2024 00:00Clear Sky12°C7 mph, S5%10000m1019hPa23%